sensor_id;sensor_type;location;lat;lon;timestamp;pressure;altitude;pressure_sealevel;temperature;humidity
36964;BME280;22878;48.616;35.326;2023-07-16T00:00:27;101023.82;;;18.61;100.00
36964;BME280;22878;48.616;35.326;2023-07-16T00:02:52;101023.17;;;18.64;100.00
36964;BME280;22878;48.616;35.326;2023-07-16T00:05:18;101023.27;;;18.67;100.00
36964;BME280;22878;48.616;35.326;2023-07-16T00:07:43;101023.18;;;18.68;100.00
36964;BME280;22878;48.616;35.326;2023-07-16T00:10:09;101027.30;;;18.70;100.00
36964;BME280;22878;48.616;35.326;2023-07-16T00:12:35;101021.13;;;18.70;100.00
36964;BME280;22878;48.616;35.326;2023-07-16T00:15:00;101021.12;;;18.70;100.00
36964;BME280;22878;48.616;35.326;2023-07-16T00:17:26;101017.80;;;18.72;100.00
36964;BME280;22878;48.616;35.326;2023-07-16T00:19:51;101022.66;;;18.74;100.00
36964;BME280;22878;48.616;35.326;2023-07-16T00:22:16;101024.55;;;18.75;100.00
36964;BME280;22878;48.616;35.326;2023-07-16T00:24:42;101017.86;;;18.76;100.00
36964;BME280;22878;48.616;35.326;2023-07-16T00:27:07;101021.27;;;18.78;100.00
36964;BME280;22878;48.616;35.326;2023-07-16T00:29:33;101016.23;;;18.78;100.00
36964;BME280;22878;48.616;35.326;2023-07-16T00:31:58;101016.87;;;18.79;100.00
36964;BME280;22878;48.616;35.326;2023-07-16T00:34:24;101018.73;;;18.82;100.00
36964;BME280;22878;48.616;35.326;2023-07-16T00:36:50;101014.52;;;18.82;100.00
36964;BME280;22878;48.616;35.326;2023-07-16T00:39:15;101022.11;;;18.85;100.00
36964;BME280;22878;48.616;35.326;2023-07-16T00:41:41;101022.47;;;18.89;100.00
36964;BME280;22878;48.616;35.326;2023-07-16T00:44:06;101020.94;;;18.92;100.00
36964;BME280;22878;48.616;35.326;2023-07-16T00:46:35;101019.49;;;18.92;100.00
36964;BME280;22878;48.616;35.326;2023-07-16T00:49:01;101015.64;;;18.91;100.00
36964;BME280;22878;48.616;35.326;2023-07-16T00:51:27;101017.20;;;18.89;100.00
36964;BME280;22878;48.616;35.326;2023-07-16T00:53:53;101019.56;;;18.87;100.00
36964;BME280;22878;48.616;35.326;2023-07-16T00:56:19;101016.13;;;18.87;100.00
36964;BME280;22878;48.616;35.326;2023-07-16T00:58:45;101015.96;;;18.83;100.00
36964;BME280;22878;48.616;35.326;2023-07-16T01:01:10;101016.54;;;18.82;100.00
36964;BME280;22878;48.616;35.326;2023-07-16T01:03:36;101018.05;;;18.83;100.00
36964;BME280;22878;48.616;35.326;2023-07-16T01:06:10;101018.17;;;18.82;100.00
36964;BME280;22878;48.616;35.326;2023-07-16T01:11:03;101021.29;;;18.82;100.00
36964;BME280;22878;48.616;35.326;2023-07-16T01:13:29;101018.55;;;18.82;100.00
36964;BME280;22878;48.616;35.326;2023-07-16T01:15:55;101019.30;;;18.83;100.00
36964;BME280;22878;48.616;35.326;2023-07-16T01:18:20;101017.50;;;18.80;100.00
36964;BME280;22878;48.616;35.326;2023-07-16T01:20:46;101015.46;;;18.79;100.00
36964;BME280;22878;48.616;35.326;2023-07-16T01:23:31;101017.52;;;18.78;100.00
36964;BME280;22878;48.616;35.326;2023-07-16T01:26:08;101021.44;;;18.80;100.00
36964;BME280;22878;48.616;35.326;2023-07-16T01:31:41;101029.74;;;18.78;100.00
36964;BME280;22878;48.616;35.326;2023-07-16T01:34:08;101031.01;;;18.75;100.00
36964;BME280;22878;48.616;35.326;2023-07-16T01:36:36;101027.96;;;18.70;100.00
36964;BME280;22878;48.616;35.326;2023-07-16T01:39:03;101029.95;;;18.65;100.00
36964;BME280;22878;48.616;35.326;2023-07-16T01:41:29;101033.30;;;18.64;100.00
36964;BME280;22878;48.616;35.326;2023-07-16T01:43:55;101028.98;;;18.59;100.00
36964;BME280;22878;48.616;35.326;2023-07-16T01:46:20;101027.20;;;18.53;100.00
36964;BME280;22878;48.616;35.326;2023-07-16T01:48:46;101025.11;;;18.50;100.00
36964;BME280;22878;48.616;35.326;2023-07-16T01:51:12;101023.44;;;18.47;100.00
36964;BME280;22878;48.616;35.326;2023-07-16T01:53:40;101022.80;;;18.42;100.00
36964;BME280;22878;48.616;35.326;2023-07-16T01:56:05;101032.35;;;18.40;100.00
36964;BME280;22878;48.616;35.326;2023-07-16T01:58:31;101034.59;;;18.37;100.00
36964;BME280;22878;48.616;35.326;2023-07-16T02:00:56;101039.80;;;18.33;100.00
36964;BME280;22878;48.616;35.326;2023-07-16T02:03:22;101041.34;;;18.31;100.00
36964;BME280;22878;48.616;35.326;2023-07-16T02:05:48;101033.89;;;18.28;100.00
36964;BME280;22878;48.616;35.326;2023-07-16T02:08:13;101033.64;;;18.24;100.00
36964;BME280;22878;48.616;35.326;2023-07-16T02:10:39;101033.75;;;18.23;100.00
36964;BME280;22878;48.616;35.326;2023-07-16T02:13:04;101035.00;;;18.21;100.00
36964;BME280;22878;48.616;35.326;2023-07-16T02:15:30;101035.10;;;18.22;100.00
36964;BME280;22878;48.616;35.326;2023-07-16T02:17:56;101037.38;;;18.22;100.00
36964;BME280;22878;48.616;35.326;2023-07-16T02:20:22;101036.10;;;18.23;100.00
36964;BME280;22878;48.616;35.326;2023-07-16T02:22:47;101035.66;;;18.26;100.00
36964;BME280;22878;48.616;35.326;2023-07-16T02:25:13;101037.55;;;18.30;100.00
36964;BME280;22878;48.616;35.326;2023-07-16T02:27:38;101036.17;;;18.34;100.00
36964;BME280;22878;48.616;35.326;2023-07-16T02:30:04;101037.25;;;18.37;100.00
36964;BME280;22878;48.616;35.326;2023-07-16T02:32:32;101035.02;;;18.40;100.00
36964;BME280;22878;48.616;35.326;2023-07-16T02:34:57;101039.79;;;18.47;100.00
36964;BME280;22878;48.616;35.326;2023-07-16T02:37:23;101038.96;;;18.57;100.00
36964;BME280;22878;48.616;35.326;2023-07-16T02:39:48;101047.95;;;18.66;100.00
36964;BME280;22878;48.616;35.326;2023-07-16T02:42:14;101042.84;;;18.75;100.00
36964;BME280;22878;48.616;35.326;2023-07-16T02:44:40;101035.39;;;18.85;100.00
36964;BME280;22878;48.616;35.326;2023-07-16T02:47:11;101035.73;;;18.94;100.00
36964;BME280;22878;48.616;35.326;2023-07-16T02:49:37;101035.71;;;19.03;100.00
36964;BME280;22878;48.616;35.326;2023-07-16T02:52:03;101042.07;;;19.15;100.00
36964;BME280;22878;48.616;35.326;2023-07-16T02:54:28;101050.21;;;19.35;100.00
36964;BME280;22878;48.616;35.326;2023-07-16T02:56:54;101048.72;;;19.55;100.00
36964;BME280;22878;48.616;35.326;2023-07-16T02:59:19;101048.70;;;19.73;100.00
36964;BME280;22878;48.616;35.326;2023-07-16T03:01:45;101052.91;;;19.85;100.00
36964;BME280;22878;48.616;35.326;2023-07-16T03:04:10;101055.58;;;19.94;100.00
36964;BME280;22878;48.616;35.326;2023-07-16T03:06:36;101049.69;;;20.03;100.00
36964;BME280;22878;48.616;35.326;2023-07-16T03:09:01;101054.45;;;20.15;100.00
36964;BME280;22878;48.616;35.326;2023-07-16T03:11:27;101061.04;;;20.27;100.00
36964;BME280;22878;48.616;35.326;2023-07-16T03:13:52;101059.73;;;20.35;100.00
36964;BME280;22878;48.616;35.326;2023-07-16T03:16:17;101066.14;;;20.46;100.00
36964;BME280;22878;48.616;35.326;2023-07-16T03:18:44;101064.16;;;20.58;100.00
36964;BME280;22878;48.616;35.326;2023-07-16T03:21:10;101064.00;;;20.79;100.00
36964;BME280;22878;48.616;35.326;2023-07-16T03:23:36;101062.14;;;21.07;100.00
36964;BME280;22878;48.616;35.326;2023-07-16T03:26:01;101066.41;;;21.53;100.00
36964;BME280;22878;48.616;35.326;2023-07-16T03:28:26;101066.08;;;22.16;100.00
36964;BME280;22878;48.616;35.326;2023-07-16T03:30:52;101066.38;;;22.83;100.00
36964;BME280;22878;48.616;35.326;2023-07-16T03:33:19;101070.86;;;23.58;100.00
36964;BME280;22878;48.616;35.326;2023-07-16T03:35:46;101069.93;;;24.15;100.00
36964;BME280;22878;48.616;35.326;2023-07-16T03:38:12;101072.46;;;24.70;100.00
36964;BME280;22878;48.616;35.326;2023-07-16T03:40:38;101065.64;;;25.24;100.00
36964;BME280;22878;48.616;35.326;2023-07-16T03:43:04;101063.77;;;25.67;100.00
36964;BME280;22878;48.616;35.326;2023-07-16T03:45:30;101069.52;;;26.20;98.93
36964;BME280;22878;48.616;35.326;2023-07-16T03:47:55;101073.09;;;26.73;95.42
36964;BME280;22878;48.616;35.326;2023-07-16T03:50:21;101074.16;;;27.15;90.65
36964;BME280;22878;48.616;35.326;2023-07-16T03:52:46;101076.82;;;27.46;86.70
36964;BME280;22878;48.616;35.326;2023-07-16T03:55:12;101078.79;;;27.83;84.00
36964;BME280;22878;48.616;35.326;2023-07-16T03:57:38;101085.45;;;28.04;79.58
36964;BME280;22878;48.616;35.326;2023-07-16T04:00:04;101086.45;;;28.28;77.53
36964;BME280;22878;48.616;35.326;2023-07-16T04:02:33;101092.54;;;28.58;75.19
36964;BME280;22878;48.616;35.326;2023-07-16T04:04:58;101087.34;;;28.94;74.45
36964;BME280;22878;48.616;35.326;2023-07-16T04:07:24;101080.80;;;29.36;72.06
36964;BME280;22878;48.616;35.326;2023-07-16T04:09:51;101082.61;;;29.82;70.01
36964;BME280;22878;48.616;35.326;2023-07-16T04:12:16;101082.86;;;30.37;67.32
36964;BME280;22878;48.616;35.326;2023-07-16T04:14:42;101080.89;;;30.84;64.87
36964;BME280;22878;48.616;35.326;2023-07-16T04:17:07;101081.66;;;31.17;61.86
36964;BME280;22878;48.616;35.326;2023-07-16T04:19:33;101089.79;;;31.32;60.15
36964;BME280;22878;48.616;35.326;2023-07-16T04:21:59;101090.23;;;31.51;58.20
36964;BME280;22878;48.616;35.326;2023-07-16T04:24:25;101093.67;;;31.59;56.58
36964;BME280;22878;48.616;35.326;2023-07-16T04:26:53;101093.94;;;31.64;56.27
36964;BME280;22878;48.616;35.326;2023-07-16T04:29:18;101095.70;;;31.85;55.21
36964;BME280;22878;48.616;35.326;2023-07-16T04:31:44;101092.26;;;32.04;54.95
36964;BME280;22878;48.616;35.326;2023-07-16T04:34:09;101090.63;;;32.34;54.23
36964;BME280;22878;48.616;35.326;2023-07-16T04:36:35;101092.26;;;32.71;53.09
36964;BME280;22878;48.616;35.326;2023-07-16T04:39:00;101096.54;;;33.10;52.58
36964;BME280;22878;48.616;35.326;2023-07-16T04:41:27;101098.70;;;33.13;50.06
36964;BME280;22878;48.616;35.326;2023-07-16T04:43:52;101098.47;;;32.89;48.84
36964;BME280;22878;48.616;35.326;2023-07-16T04:46:18;101093.86;;;32.52;49.31
36964;BME280;22878;48.616;35.326;2023-07-16T04:48:43;101093.77;;;32.78;50.58
36964;BME280;22878;48.616;35.326;2023-07-16T04:51:09;101098.90;;;33.23;49.49
36964;BME280;22878;48.616;35.326;2023-07-16T04:53:37;101096.35;;;33.73;49.31
36964;BME280;22878;48.616;35.326;2023-07-16T04:56:03;101097.83;;;34.09;47.79
36964;BME280;22878;48.616;35.326;2023-07-16T04:58:28;101101.96;;;34.27;47.00
36964;BME280;22878;48.616;35.326;2023-07-16T05:00:54;101106.42;;;34.63;46.02
36964;BME280;22878;48.616;35.326;2023-07-16T05:03:19;101110.27;;;34.80;44.93
36964;BME280;22878;48.616;35.326;2023-07-16T05:05:45;101113.54;;;34.74;44.59
36964;BME280;22878;48.616;35.326;2023-07-16T05:08:10;101112.06;;;35.03;44.94
36964;BME280;22878;48.616;35.326;2023-07-16T05:10:36;101111.93;;;35.53;43.84
36964;BME280;22878;48.616;35.326;2023-07-16T05:13:01;101112.02;;;35.84;43.04
36964;BME280;22878;48.616;35.326;2023-07-16T05:15:29;101114.59;;;36.08;42.24
36964;BME280;22878;48.616;35.326;2023-07-16T05:17:54;101115.59;;;36.27;41.60
36964;BME280;22878;48.616;35.326;2023-07-16T05:20:22;101118.52;;;36.51;41.42
36964;BME280;22878;48.616;35.326;2023-07-16T05:22:48;101118.98;;;36.81;40.72
36964;BME280;22878;48.616;35.326;2023-07-16T05:25:13;101120.84;;;36.99;40.03
36964;BME280;22878;48.616;35.326;2023-07-16T05:27:39;101123.58;;;37.08;39.36
36964;BME280;22878;48.616;35.326;2023-07-16T05:30:05;101122.20;;;37.14;39.07
36964;BME280;22878;48.616;35.326;2023-07-16T05:32:30;101125.58;;;37.33;38.25
36964;BME280;22878;48.616;35.326;2023-07-16T05:34:56;101126.12;;;37.39;37.88
36964;BME280;22878;48.616;35.326;2023-07-16T05:37:21;101128.20;;;37.39;37.63
36964;BME280;22878;48.616;35.326;2023-07-16T05:39:47;101126.95;;;37.41;37.47
36964;BME280;22878;48.616;35.326;2023-07-16T05:42:12;101131.27;;;37.67;37.60
36964;BME280;22878;48.616;35.326;2023-07-16T05:44:38;101135.42;;;38.02;37.24
36964;BME280;22878;48.616;35.326;2023-07-16T05:47:04;101131.84;;;38.28;36.51
36964;BME280;22878;48.616;35.326;2023-07-16T05:49:29;101134.19;;;38.49;36.64
36964;BME280;22878;48.616;35.326;2023-07-16T05:51:55;101137.84;;;38.64;36.23
36964;BME280;22878;48.616;35.326;2023-07-16T05:54:21;101135.41;;;38.42;35.51
36964;BME280;22878;48.616;35.326;2023-07-16T05:56:47;101141.42;;;38.24;35.11
36964;BME280;22878;48.616;35.326;2023-07-16T05:59:12;101141.63;;;37.58;34.61
36964;BME280;22878;48.616;35.326;2023-07-16T06:01:38;101148.05;;;36.85;36.08
36964;BME280;22878;48.616;35.326;2023-07-16T06:04:04;101143.43;;;37.17;35.71
36964;BME280;22878;48.616;35.326;2023-07-16T06:06:31;101145.15;;;37.39;35.43
36964;BME280;22878;48.616;35.326;2023-07-16T06:08:56;101148.05;;;37.55;35.24
36964;BME280;22878;48.616;35.326;2023-07-16T06:11:22;101144.31;;;37.93;35.69
36964;BME280;22878;48.616;35.326;2023-07-16T06:13:47;101140.20;;;38.56;34.73
36964;BME280;22878;48.616;35.326;2023-07-16T06:16:13;101141.19;;;38.72;34.03
36964;BME280;22878;48.616;35.326;2023-07-16T06:18:38;101140.55;;;38.65;33.40
36964;BME280;22878;48.616;35.326;2023-07-16T06:21:04;101140.63;;;38.72;33.52
36964;BME280;22878;48.616;35.326;2023-07-16T06:23:29;101139.77;;;38.77;32.42
36964;BME280;22878;48.616;35.326;2023-07-16T06:25:55;101144.45;;;38.64;31.65
36964;BME280;22878;48.616;35.326;2023-07-16T06:28:21;101141.98;;;38.47;32.22
36964;BME280;22878;48.616;35.326;2023-07-16T06:30:47;101140.88;;;38.84;31.95
36964;BME280;22878;48.616;35.326;2023-07-16T06:33:12;101140.70;;;38.85;31.66
36964;BME280;22878;48.616;35.326;2023-07-16T06:35:38;101141.23;;;38.90;31.80
36964;BME280;22878;48.616;35.326;2023-07-16T06:38:06;101141.71;;;38.99;31.44
36964;BME280;22878;48.616;35.326;2023-07-16T06:40:32;101138.44;;;39.31;31.74
36964;BME280;22878;48.616;35.326;2023-07-16T06:42:57;101134.72;;;39.79;31.40
36964;BME280;22878;48.616;35.326;2023-07-16T06:45:23;101137.31;;;40.14;30.79
36964;BME280;22878;48.616;35.326;2023-07-16T06:47:48;101136.55;;;40.04;29.74
36964;BME280;22878;48.616;35.326;2023-07-16T06:50:14;101142.48;;;40.08;29.83
36964;BME280;22878;48.616;35.326;2023-07-16T06:52:39;101145.96;;;40.21;29.29
36964;BME280;22878;48.616;35.326;2023-07-16T06:55:05;101149.94;;;40.09;29.22
36964;BME280;22878;48.616;35.326;2023-07-16T06:57:31;101145.95;;;39.79;29.08
36964;BME280;22878;48.616;35.326;2023-07-16T06:59:56;101148.32;;;39.94;29.85
36964;BME280;22878;48.616;35.326;2023-07-16T07:02:22;101151.47;;;40.45;29.12
36964;BME280;22878;48.616;35.326;2023-07-16T07:04:47;101149.66;;;40.81;28.97
36964;BME280;22878;48.616;35.326;2023-07-16T07:07:13;101145.65;;;40.85;29.06
36964;BME280;22878;48.616;35.326;2023-07-16T07:09:38;101145.38;;;41.00;29.02
36964;BME280;22878;48.616;35.326;2023-07-16T07:12:04;101148.28;;;40.52;27.74
36964;BME280;22878;48.616;35.326;2023-07-16T07:14:30;101144.89;;;40.14;28.30
36964;BME280;22878;48.616;35.326;2023-07-16T07:16:57;101149.09;;;40.42;28.09
36964;BME280;22878;48.616;35.326;2023-07-16T07:19:22;101149.27;;;40.39;28.06
36964;BME280;22878;48.616;35.326;2023-07-16T07:21:48;101144.17;;;40.26;28.27
36964;BME280;22878;48.616;35.326;2023-07-16T07:24:13;101145.27;;;39.90;27.68
36964;BME280;22878;48.616;35.326;2023-07-16T07:26:39;101141.09;;;39.57;28.25
36964;BME280;22878;48.616;35.326;2023-07-16T07:29:04;101134.25;;;39.79;27.92
36964;BME280;22878;48.616;35.326;2023-07-16T07:31:30;101137.23;;;39.87;28.13
36964;BME280;22878;48.616;35.326;2023-07-16T07:33:55;101137.58;;;39.70;27.50
36964;BME280;22878;48.616;35.326;2023-07-16T07:36:23;101135.29;;;39.25;28.29
36964;BME280;22878;48.616;35.326;2023-07-16T07:38:48;101137.17;;;39.39;28.09
36964;BME280;22878;48.616;35.326;2023-07-16T07:41:14;101137.16;;;39.45;27.46
36964;BME280;22878;48.616;35.326;2023-07-16T07:43:39;101137.21;;;39.11;27.60
36964;BME280;22878;48.616;35.326;2023-07-16T07:46:05;101144.61;;;38.58;27.89
36964;BME280;22878;48.616;35.326;2023-07-16T07:48:31;101145.46;;;38.35;28.10
36964;BME280;22878;48.616;35.326;2023-07-16T07:50:57;101147.43;;;38.05;28.30
36964;BME280;22878;48.616;35.326;2023-07-16T07:53:22;101144.46;;;38.23;28.93
36964;BME280;22878;48.616;35.326;2023-07-16T07:55:48;101145.73;;;38.09;28.24
36964;BME280;22878;48.616;35.326;2023-07-16T07:58:13;101147.05;;;38.01;28.82
36964;BME280;22878;48.616;35.326;2023-07-16T08:00:39;101148.86;;;38.24;28.31
36964;BME280;22878;48.616;35.326;2023-07-16T08:03:04;101149.77;;;38.05;28.07
36964;BME280;22878;48.616;35.326;2023-07-16T08:05:31;101148.16;;;38.16;28.31
36964;BME280;22878;48.616;35.326;2023-07-16T08:07:56;101145.52;;;38.72;28.36
36964;BME280;22878;48.616;35.326;2023-07-16T08:10:22;101140.07;;;39.30;27.54
36964;BME280;22878;48.616;35.326;2023-07-16T08:12:48;101136.71;;;39.58;27.78
36964;BME280;22878;48.616;35.326;2023-07-16T08:15:14;101135.63;;;40.10;27.00
36964;BME280;22878;48.616;35.326;2023-07-16T08:17:43;101134.74;;;40.21;26.67
36964;BME280;22878;48.616;35.326;2023-07-16T08:20:10;101130.48;;;39.83;26.61
36964;BME280;22878;48.616;35.326;2023-07-16T08:22:36;101132.15;;;39.57;26.75
36964;BME280;22878;48.616;35.326;2023-07-16T08:25:02;101129.23;;;39.38;26.58
36964;BME280;22878;48.616;35.326;2023-07-16T08:27:29;101129.11;;;39.21;26.68
36964;BME280;22878;48.616;35.326;2023-07-16T08:29:55;101131.45;;;39.27;26.65
36964;BME280;22878;48.616;35.326;2023-07-16T08:32:20;101129.55;;;39.38;26.22
36964;BME280;22878;48.616;35.326;2023-07-16T08:34:46;101133.52;;;38.92;26.44
36964;BME280;22878;48.616;35.326;2023-07-16T08:37:13;101131.92;;;38.49;27.17
36964;BME280;22878;48.616;35.326;2023-07-16T08:39:38;101132.70;;;38.37;26.87
36964;BME280;22878;48.616;35.326;2023-07-16T08:42:04;101133.23;;;38.41;27.22
36964;BME280;22878;48.616;35.326;2023-07-16T08:44:30;101129.59;;;38.85;26.93
36964;BME280;22878;48.616;35.326;2023-07-16T08:46:56;101130.69;;;38.90;26.64
36964;BME280;22878;48.616;35.326;2023-07-16T08:49:22;101130.48;;;38.94;26.79
36964;BME280;22878;48.616;35.326;2023-07-16T08:51:48;101119.70;;;38.99;26.56
36964;BME280;22878;48.616;35.326;2023-07-16T08:54:15;101119.04;;;39.12;26.63
36964;BME280;22878;48.616;35.326;2023-07-16T08:56:43;101118.03;;;38.71;27.04
36964;BME280;22878;48.616;35.326;2023-07-16T08:59:10;101116.53;;;38.40;26.94
36964;BME280;22878;48.616;35.326;2023-07-16T09:01:37;101117.34;;;37.94;27.77
36964;BME280;22878;48.616;35.326;2023-07-16T09:04:02;101119.40;;;38.00;27.94
36964;BME280;22878;48.616;35.326;2023-07-16T09:06:28;101120.20;;;38.10;28.13
36964;BME280;22878;48.616;35.326;2023-07-16T09:08:53;101119.95;;;38.28;27.74
36964;BME280;22878;48.616;35.326;2023-07-16T09:11:21;101115.88;;;38.76;27.62
36964;BME280;22878;48.616;35.326;2023-07-16T09:13:48;101112.11;;;38.85;26.89
36964;BME280;22878;48.616;35.326;2023-07-16T09:16:13;101107.59;;;38.36;27.36
36964;BME280;22878;48.616;35.326;2023-07-16T09:18:42;101108.70;;;38.52;28.35
36964;BME280;22878;48.616;35.326;2023-07-16T09:21:07;101104.50;;;38.73;27.50
36964;BME280;22878;48.616;35.326;2023-07-16T09:23:33;101109.79;;;38.22;27.31
36964;BME280;22878;48.616;35.326;2023-07-16T09:26:02;101113.30;;;37.69;28.23
36964;BME280;22878;48.616;35.326;2023-07-16T09:28:30;101113.20;;;37.39;27.91
36964;BME280;22878;48.616;35.326;2023-07-16T09:30:56;101109.96;;;36.69;28.82
36964;BME280;22878;48.616;35.326;2023-07-16T09:33:28;101107.63;;;36.24;29.19
36964;BME280;22878;48.616;35.326;2023-07-16T09:35:54;101103.21;;;36.09;29.47
36964;BME280;22878;48.616;35.326;2023-07-16T09:38:23;101105.64;;;35.82;29.96
36964;BME280;22878;48.616;35.326;2023-07-16T09:40:51;101104.98;;;35.96;29.87
36964;BME280;22878;48.616;35.326;2023-07-16T09:43:17;101101.74;;;35.98;29.09
36964;BME280;22878;48.616;35.326;2023-07-16T09:45:42;101111.42;;;36.00;29.66
36964;BME280;22878;48.616;35.326;2023-07-16T09:48:08;101104.57;;;35.95;29.37
36964;BME280;22878;48.616;35.326;2023-07-16T09:50:35;101108.46;;;35.62;29.59
36964;BME280;22878;48.616;35.326;2023-07-16T09:53:03;101108.54;;;35.27;29.53
36964;BME280;22878;48.616;35.326;2023-07-16T09:55:31;101106.29;;;35.14;29.23
36964;BME280;22878;48.616;35.326;2023-07-16T09:58:01;101102.94;;;35.20;29.30
36964;BME280;22878;48.616;35.326;2023-07-16T10:00:27;101101.54;;;35.17;29.54
36964;BME280;22878;48.616;35.326;2023-07-16T10:02:54;101094.35;;;34.90;29.68
36964;BME280;22878;48.616;35.326;2023-07-16T10:05:27;101096.89;;;34.91;30.49
36964;BME280;22878;48.616;35.326;2023-07-16T10:07:58;101090.66;;;34.98;30.51
36964;BME280;22878;48.616;35.326;2023-07-16T10:10:38;101089.19;;;35.17;30.77
36964;BME280;22878;48.616;35.326;2023-07-16T10:13:07;101096.33;;;35.09;30.22
36964;BME280;22878;48.616;35.326;2023-07-16T10:15:33;101098.36;;;34.71;30.09
36964;BME280;22878;48.616;35.326;2023-07-16T10:17:59;101096.71;;;34.57;29.96
36964;BME280;22878;48.616;35.326;2023-07-16T10:20:33;101099.02;;;34.45;29.96
36964;BME280;22878;48.616;35.326;2023-07-16T10:23:09;101093.70;;;34.52;29.41
36964;BME280;22878;48.616;35.326;2023-07-16T10:25:36;101098.26;;;34.55;29.78
36964;BME280;22878;48.616;35.326;2023-07-16T10:28:02;101098.02;;;34.51;29.84
36964;BME280;22878;48.616;35.326;2023-07-16T10:30:28;101102.14;;;34.46;30.62
36964;BME280;22878;48.616;35.326;2023-07-16T10:32:54;101098.89;;;34.52;29.38
36964;BME280;22878;48.616;35.326;2023-07-16T10:35:19;101102.39;;;34.43;29.74
36964;BME280;22878;48.616;35.326;2023-07-16T10:37:45;101104.85;;;34.37;29.76
36964;BME280;22878;48.616;35.326;2023-07-16T10:40:12;101106.46;;;34.35;29.10
36964;BME280;22878;48.616;35.326;2023-07-16T10:42:40;101105.23;;;34.28;28.65
36964;BME280;22878;48.616;35.326;2023-07-16T10:45:06;101103.73;;;34.26;28.53
36964;BME280;22878;48.616;35.326;2023-07-16T10:47:34;101102.84;;;34.15;28.57
36964;BME280;22878;48.616;35.326;2023-07-16T10:50:02;101104.11;;;34.16;29.16
36964;BME280;22878;48.616;35.326;2023-07-16T10:52:28;101107.58;;;33.98;29.35
36964;BME280;22878;48.616;35.326;2023-07-16T10:54:54;101105.58;;;33.97;29.78
36964;BME280;22878;48.616;35.326;2023-07-16T10:57:21;101104.75;;;34.03;30.05
36964;BME280;22878;48.616;35.326;2023-07-16T10:59:46;101104.24;;;34.22;30.34
36964;BME280;22878;48.616;35.326;2023-07-16T11:02:15;101104.35;;;34.27;30.30
36964;BME280;22878;48.616;35.326;2023-07-16T11:04:43;101110.61;;;33.80;30.08
36964;BME280;22878;48.616;35.326;2023-07-16T11:07:11;101114.94;;;33.23;29.96
36964;BME280;22878;48.616;35.326;2023-07-16T11:09:44;101117.03;;;33.16;30.30
36964;BME280;22878;48.616;35.326;2023-07-16T11:12:11;101112.45;;;33.36;30.84
36964;BME280;22878;48.616;35.326;2023-07-16T11:14:38;101104.98;;;33.45;30.72
36964;BME280;22878;48.616;35.326;2023-07-16T11:17:07;101102.42;;;33.45;30.94
36964;BME280;22878;48.616;35.326;2023-07-16T11:19:35;101111.98;;;33.25;30.30
36964;BME280;22878;48.616;35.326;2023-07-16T11:22:02;101108.84;;;32.95;30.62
36964;BME280;22878;48.616;35.326;2023-07-16T11:24:49;101106.61;;;32.91;31.15
36964;BME280;22878;48.616;35.326;2023-07-16T11:27:16;101097.70;;;33.27;31.48
36964;BME280;22878;48.616;35.326;2023-07-16T11:29:45;101106.65;;;33.52;30.95
36964;BME280;22878;48.616;35.326;2023-07-16T11:32:11;101107.60;;;33.47;30.33
36964;BME280;22878;48.616;35.326;2023-07-16T11:34:37;101112.09;;;33.54;30.53
36964;BME280;22878;48.616;35.326;2023-07-16T11:37:11;101110.51;;;33.67;30.23
36964;BME280;22878;48.616;35.326;2023-07-16T11:39:37;101101.27;;;33.78;30.09
36964;BME280;22878;48.616;35.326;2023-07-16T11:42:04;101107.75;;;33.78;30.38
36964;BME280;22878;48.616;35.326;2023-07-16T11:44:33;101111.91;;;33.91;30.32
36964;BME280;22878;48.616;35.326;2023-07-16T11:47:00;101106.88;;;33.92;30.25
36964;BME280;22878;48.616;35.326;2023-07-16T11:49:25;101109.31;;;34.00;30.59
36964;BME280;22878;48.616;35.326;2023-07-16T11:51:51;101107.70;;;34.05;29.63
36964;BME280;22878;48.616;35.326;2023-07-16T11:54:17;101106.15;;;34.10;29.46
36964;BME280;22878;48.616;35.326;2023-07-16T11:56:42;101107.95;;;34.16;29.73
36964;BME280;22878;48.616;35.326;2023-07-16T11:59:08;101102.27;;;34.17;29.88
36964;BME280;22878;48.616;35.326;2023-07-16T12:01:33;101102.67;;;33.99;30.31
36964;BME280;22878;48.616;35.326;2023-07-16T12:03:59;101102.55;;;33.78;30.97
36964;BME280;22878;48.616;35.326;2023-07-16T12:06:24;101100.56;;;33.60;30.86
36964;BME280;22878;48.616;35.326;2023-07-16T12:08:50;101102.98;;;33.08;31.24
36964;BME280;22878;48.616;35.326;2023-07-16T12:11:15;101106.21;;;32.55;32.13
36964;BME280;22878;48.616;35.326;2023-07-16T12:13:41;101111.34;;;32.18;32.87
36964;BME280;22878;48.616;35.326;2023-07-16T12:16:07;101100.42;;;32.22;32.90
36964;BME280;22878;48.616;35.326;2023-07-16T12:18:32;101103.49;;;32.45;33.11
36964;BME280;22878;48.616;35.326;2023-07-16T12:20:58;101106.77;;;32.65;32.49
36964;BME280;22878;48.616;35.326;2023-07-16T12:23:29;101109.09;;;32.73;32.39
36964;BME280;22878;48.616;35.326;2023-07-16T12:25:54;101109.88;;;32.86;31.55
36964;BME280;22878;48.616;35.326;2023-07-16T12:28:20;101111.71;;;32.75;31.35
36964;BME280;22878;48.616;35.326;2023-07-16T12:30:45;101116.31;;;32.43;31.61
36964;BME280;22878;48.616;35.326;2023-07-16T12:33:11;101110.48;;;32.29;32.33
36964;BME280;22878;48.616;35.326;2023-07-16T12:35:36;101101.89;;;32.42;32.36
36964;BME280;22878;48.616;35.326;2023-07-16T12:38:02;101103.83;;;32.56;32.24